Airport View

Enter AWOS ICAO identifier for current METAR.

ex. KFNL

KAXH 261135Z AUTO 00000KT 10SM CLR 23/23 A3007 RMK AO2 T02320230

26 Jun 2019 11:49

Frequency: 123.625

Phone: 281-431-6572

Other Area AWOS: KSGR - KLVJ - KMCJ - KHOU

TAF AMD KLBX 260943Z 2610/2706 14003KT P6SM BKN130 FM261600 15010KT P6SM VCTS SCT030CB BKN130 FM262100 15010KT P6SM SCT040 BKN130